Time;durP1;ratioP1;P1;durP2;ratioP2;P2;SDS_P1;SDS_P2;PMS_P1;PMS_P2;Temp;Humidity;BMP_temperature;BMP_pressure;BME280_temperature;BME280_humidity;BME280_pressure;Samples;Min_cycle;Max_cycle;Signal;HPM_P1;HPM_P2
2022/07/31 00:01:48;;;;;;;6.40;4.72;;;;;;;18.21;68.63;96541.22;5023694;28;20057;-80
2022/07/31 00:04:15;;;;;;;4.95;4.45;;;;;;;18.20;69.30;96539.63;5022297;28;20054;-81
2022/07/31 00:06:42;;;;;;;6.50;5.43;;;;;;;18.11;69.11;96533.53;5024044;28;20049;-81
2022/07/31 00:09:09;;;;;;;5.68;4.57;;;;;;;18.13;70.62;96542.25;5023011;28;20052;-81
2022/07/31 00:11:35;;;;;;;6.35;4.78;;;;;;;18.02;70.05;96535.72;5025975;28;20107;-82
2022/07/31 00:14:01;;;;;;;7.15;4.20;;;;;;;17.99;70.89;96538.03;5026251;28;20068;-77
2022/07/31 00:16:29;;;;;;;6.22;4.70;;;;;;;17.97;71.66;96529.34;5026907;28;20038;-83
2022/07/31 00:18:56;;;;;;;6.03;4.30;;;;;;;17.81;71.58;96536.88;5020385;28;20050;-82
2022/07/31 00:21:23;;;;;;;6.30;4.28;;;;;;;17.85;71.36;96526.69;5006483;28;20049;-83
2022/07/31 00:23:50;;;;;;;4.47;4.05;;;;;;;17.87;71.99;96524.41;5008680;28;20042;-81
2022/07/31 00:26:16;;;;;;;5.53;4.50;;;;;;;17.91;72.46;96524.50;5007745;28;20058;-82
2022/07/31 00:28:43;;;;;;;5.22;4.15;;;;;;;17.83;71.98;96519.97;5008699;28;20038;-82
2022/07/31 00:31:11;;;;;;;5.40;4.30;;;;;;;17.79;72.29;96522.66;5006386;28;20054;-83
2022/07/31 00:33:39;;;;;;;5.35;4.30;;;;;;;17.78;72.61;96521.06;5026636;28;20048;-83
2022/07/31 00:36:06;;;;;;;5.32;4.15;;;;;;;17.68;72.50;96527.09;5014697;28;20050;-83
2022/07/31 00:38:33;;;;;;;5.35;4.20;;;;;;;17.74;72.71;96520.16;5006321;28;20042;-82
2022/07/31 00:41:00;;;;;;;4.57;4.07;;;;;;;17.59;72.87;96520.97;5003240;28;20043;-81
2022/07/31 00:43:26;;;;;;;4.75;3.80;;;;;;;17.68;73.52;96516.88;5002427;28;20061;-81
2022/07/31 00:45:53;;;;;;;4.72;4.10;;;;;;;17.72;73.64;96522.47;5001903;28;20042;-80
2022/07/31 00:48:19;;;;;;;6.70;4.10;;;;;;;17.72;73.52;96511.44;5003393;28;20042;-83
2022/07/31 00:50:47;;;;;;;6.30;5.07;;;;;;;17.64;73.16;96520.69;5040549;28;20045;-80
2022/07/31 00:53:14;;;;;;;7.55;5.85;;;;;;;17.51;73.19;96517.28;5040476;28;20099;-81
2022/07/31 00:55:41;;;;;;;6.13;5.07;;;;;;;17.49;73.61;96516.84;5031064;28;20042;-84
2022/07/31 00:58:08;;;;;;;6.13;5.35;;;;;;;17.40;73.88;96519.78;5040516;28;20413;-82
2022/07/31 01:00:34;;;;;;;6.22;5.05;;;;;;;17.32;74.10;96518.00;5040124;28;20104;-80
2022/07/31 01:03:01;;;;;;;6.38;4.35;;;;;;;17.33;74.26;96522.38;5040108;28;20471;-81
2022/07/31 01:05:29;;;;;;;6.38;4.68;;;;;;;17.31;74.22;96518.38;5040438;28;20038;-82
2022/07/31 01:07:57;;;;;;;6.38;4.47;;;;;;;17.25;74.83;96514.31;5039293;28;20049;-83
2022/07/31 01:10:38;;;;;;;5.28;4.38;;;;;;;17.11;75.41;96514.75;5039226;28;20154;-81
2022/07/31 01:13:10;;;;;;;4.97;4.20;;;;;;;17.12;75.47;96510.84;5038220;28;20045;-80
2022/07/31 01:15:38;;;;;;;7.07;4.20;;;;;;;17.19;75.87;96513.78;5040610;28;20489;-82
2022/07/31 01:18:06;;;;;;;5.13;4.47;;;;;;;17.12;75.57;96505.34;5040159;28;20128;-82
2022/07/31 01:20:33;;;;;;;5.35;4.32;;;;;;;16.98;76.09;96516.81;5021765;28;20421;-81
2022/07/31 01:23:47;;;;;;;6.63;4.53;;;;;;;16.98;75.88;96513.28;5018135;28;20056;-80
2022/07/31 01:26:24;;;;;;;5.57;4.38;;;;;;;16.97;76.18;96506.97;4983106;28;20060;-80
2022/07/31 01:29:03;;;;;;;6.50;4.53;;;;;;;16.90;76.32;96510.31;5019405;28;20058;-81
2022/07/31 01:31:35;;;;;;;7.32;4.30;;;;;;;16.91;76.41;96511.94;5019779;28;20046;-83
2022/07/31 01:34:08;;;;;;;4.93;4.38;;;;;;;17.00;76.95;96508.19;5018693;28;20548;-80
2022/07/31 01:36:37;;;;;;;4.78;4.20;;;;;;;16.99;76.80;96512.13;5019530;28;20045;-82
2022/07/31 01:39:04;;;;;;;4.32;3.83;;;;;;;17.00;76.34;96514.50;5020991;28;20046;-81
2022/07/31 01:41:35;;;;;;;5.93;4.22;;;;;;;17.00;76.20;96510.94;5019908;28;20386;-80
2022/07/31 01:44:05;;;;;;;4.47;4.07;;;;;;;16.97;76.27;96511.69;5020372;28;20057;-82
2022/07/31 01:46:37;;;;;;;5.20;4.05;;;;;;;16.92;76.61;96516.28;5020201;28;20046;-81
2022/07/31 01:49:04;;;;;;;5.80;3.75;;;;;;;16.93;76.67;96512.38;5019954;28;20504;-82
2022/07/31 01:51:34;;;;;;;7.10;3.85;;;;;;;16.88;76.85;96522.84;5019595;28;20038;-80
2022/07/31 01:54:03;;;;;;;5.18;3.72;;;;;;;16.83;76.89;96506.63;5018322;28;20057;-81
2022/07/31 01:56:31;;;;;;;5.93;4.68;;;;;;;16.75;77.65;96519.38;5019707;28;20052;-82
2022/07/31 01:59:00;;;;;;;6.15;4.50;;;;;;;16.63;77.79;96511.97;5019736;28;20050;-82
2022/07/31 02:01:30;;;;;;;4.85;4.35;;;;;;;16.65;77.85;96514.34;5017882;28;20099;-82
2022/07/31 02:03:57;;;;;;;5.35;4.32;;;;;;;16.70;78.20;96511.34;5008757;28;20053;-81
2022/07/31 02:06:26;;;;;;;4.68;4.13;;;;;;;16.73;77.71;96505.19;5015324;28;20077;-81
2022/07/31 02:08:55;;;;;;;5.75;4.78;;;;;;;16.71;77.86;96507.50;5020022;28;20050;-80
2022/07/31 02:11:22;;;;;;;6.68;4.15;;;;;;;16.77;77.83;96505.28;5017482;28;20058;-80
2022/07/31 02:13:52;;;;;;;5.50;3.92;;;;;;;16.84;78.04;96506.25;5017350;28;20109;-82
2022/07/31 02:16:20;;;;;;;5.25;4.50;;;;;;;16.85;77.68;96502.34;5018953;28;20133;-80
2022/07/31 02:18:50;;;;;;;5.50;4.18;;;;;;;16.83;77.81;96504.66;5019454;28;20045;-81
2022/07/31 02:21:17;;;;;;;5.20;4.05;;;;;;;16.75;77.92;96508.38;5019376;28;20057;-81
2022/07/31 02:23:44;;;;;;;4.68;4.15;;;;;;;16.72;77.96;96511.84;5019392;28;20125;-81
2022/07/31 02:26:11;;;;;;;6.03;4.30;;;;;;;16.75;78.81;96508.38;5017549;28;20053;-81
2022/07/31 02:28:42;;;;;;;6.30;4.35;;;;;;;16.77;78.36;96508.84;5019169;28;20050;-82
2022/07/31 02:31:11;;;;;;;7.60;4.20;;;;;;;16.75;77.71;96511.13;5017543;28;20049;-81
2022/07/31 02:33:44;;;;;;;6.00;4.30;;;;;;;16.65;78.19;96509.69;5018930;28;20077;-81
2022/07/31 02:36:13;;;;;;;5.77;4.53;;;;;;;16.64;78.68;96505.31;5019253;28;20110;-82
2022/07/31 02:38:41;;;;;;;6.88;4.28;;;;;;;16.63;79.59;96506.47;5007887;28;20046;-80
2022/07/31 02:41:11;;;;;;;6.28;4.40;;;;;;;16.59;79.07;96504.78;5017295;28;20041;-80
2022/07/31 02:43:39;;;;;;;5.18;4.30;;;;;;;16.55;79.11;96510.22;5017676;28;20041;-80
2022/07/31 02:46:06;;;;;;;5.88;4.30;;;;;;;16.54;79.22;96505.03;5017433;28;20057;-80
2022/07/31 02:48:33;;;;;;;5.00;4.43;;;;;;;16.51;79.34;96512.06;5016699;28;20042;-80
2022/07/31 02:50:59;;;;;;;5.07;4.13;;;;;;;16.55;79.60;96509.38;5017388;28;20045;-80
2022/07/31 02:53:29;;;;;;;5.13;3.88;;;;;;;16.53;79.94;96511.69;5017190;28;20046;-81
2022/07/31 02:55:57;;;;;;;6.45;4.28;;;;;;;16.54;80.04;96513.28;5017666;28;20046;-83
2022/07/31 02:58:24;;;;;;;5.97;4.30;;;;;;;16.53;79.68;96508.94;5017586;28;20046;-80
2022/07/31 03:00:58;;;;;;;5.05;4.07;;;;;;;16.51;79.67;96503.00;5018510;28;20046;-81
2022/07/31 03:03:25;;;;;;;4.93;4.20;;;;;;;16.44;80.28;96498.94;5025023;28;20042;-83
2022/07/31 03:05:51;;;;;;;6.00;4.63;;;;;;;16.34;79.96;96499.44;5031083;28;20049;-82
2022/07/31 03:08:17;;;;;;;6.50;4.60;;;;;;;16.31;79.84;96507.56;5031492;28;20050;-82
2022/07/31 03:10:46;;;;;;;4.93;4.38;;;;;;;16.30;79.72;96498.53;5048367;28;20080;-82
2022/07/31 03:13:14;;;;;;;5.60;3.95;;;;;;;16.30;79.74;96504.03;5030377;28;20050;-81
2022/07/31 03:15:41;;;;;;;6.03;4.47;;;;;;;16.41;80.17;96510.63;5023144;28;20046;-82
2022/07/31 03:18:10;;;;;;;5.32;4.30;;;;;;;16.44;79.99;96504.44;5020641;28;20050;-82
2022/07/31 03:20:38;;;;;;;5.50;4.07;;;;;;;16.47;80.53;96507.59;5037493;28;20046;-83
2022/07/31 03:23:05;;;;;;;7.03;4.70;;;;;;;16.43;80.13;96510.25;5040508;28;20496;-81
2022/07/31 03:25:32;;;;;;;5.32;4.38;;;;;;;16.36;79.98;96510.88;5041019;28;20045;-81
2022/07/31 03:28:00;;;;;;;4.88;4.38;;;;;;;16.35;79.96;96506.53;5040221;28;20052;-81
2022/07/31 03:30:26;;;;;;;4.82;4.32;;;;;;;16.44;80.41;96504.44;5038942;28;20098;-81
2022/07/31 03:32:54;;;;;;;4.93;4.32;;;;;;;16.47;80.50;96502.91;5040363;28;20058;-80
2022/07/31 03:35:21;;;;;;;8.73;4.45;;;;;;;16.49;80.22;96516.28;5038729;28;20541;-81
2022/07/31 03:37:48;;;;;;;6.20;4.30;;;;;;;16.54;80.63;96507.78;5040431;28;20046;-82
2022/07/31 03:40:15;;;;;;;7.85;4.40;;;;;;;16.54;80.98;96511.34;5039472;28;20073;-81
2022/07/31 03:42:43;;;;;;;5.55;5.00;;;;;;;16.40;80.26;96514.53;5029965;28;20042;-81
2022/07/31 03:45:13;;;;;;;5.57;4.38;;;;;;;16.43;79.92;96508.31;5018934;28;20056;-81
2022/07/31 03:47:39;;;;;;;6.60;4.80;;;;;;;16.42;80.07;96503.97;5041420;28;20050;-82
2022/07/31 03:50:07;;;;;;;6.70;4.57;;;;;;;16.46;79.64;96506.81;5026289;28;20052;-82
2022/07/31 03:52:35;;;;;;;4.82;3.97;;;;;;;16.54;79.31;96507.78;5021500;28;20045;-82
2022/07/31 03:55:01;;;;;;;5.85;4.07;;;;;;;16.47;79.01;96507.59;5024236;28;20085;-76
2022/07/31 03:57:29;;;;;;;4.55;4.15;;;;;;;16.43;78.98;96500.06;5025610;28;20053;-82
2022/07/31 03:59:56;;;;;;;5.60;4.15;;;;;;;16.49;79.18;96508.03;5025366;28;20092;-82
2022/07/31 04:02:26;;;;;;;5.35;4.05;;;;;;;16.44;79.00;96504.44;5026118;28;20065;-82
2022/07/31 04:04:53;;;;;;;5.35;4.40;;;;;;;16.55;79.18;96510.22;5025708;28;20057;-81
2022/07/31 04:07:19;;;;;;;6.45;4.47;;;;;;;16.54;78.89;96503.09;5023636;28;20520;-82
2022/07/31 04:09:46;;;;;;;5.18;3.53;;;;;;;16.48;78.79;96509.19;5025304;28;20046;-81
2022/07/31 04:12:12;;;;;;;4.75;3.70;;;;;;;16.52;78.79;96510.09;5025357;28;20054;-81
2022/07/31 04:14:39;;;;;;;4.90;3.55;;;;;;;16.49;79.06;96506.09;5026330;28;20048;-82
2022/07/31 04:17:06;;;;;;;4.90;3.97;;;;;;;16.47;79.15;96515.84;5025933;28;20048;-83
2022/07/31 04:19:33;;;;;;;5.22;3.83;;;;;;;16.51;79.08;96514.00;5024876;28;20053;-81
2022/07/31 04:22:01;;;;;;;4.38;3.95;;;;;;;16.52;78.86;96515.59;5026430;28;20104;-81
2022/07/31 04:24:27;;;;;;;4.57;4.07;;;;;;;16.55;79.10;96509.38;5026539;28;20042;-83
2022/07/31 04:26:55;;;;;;;3.90;3.50;;;;;;;16.62;79.15;96513.13;5026343;28;20050;-82
2022/07/31 04:29:22;;;;;;;4.60;3.95;;;;;;;16.62;78.65;96509.59;5025094;28;20050;-82
2022/07/31 04:31:48;;;;;;;4.47;3.50;;;;;;;16.61;78.41;96516.25;5024558;28;20085;-82
2022/07/31 04:34:15;;;;;;;5.63;3.88;;;;;;;16.64;79.11;96518.25;5024785;28;20409;-81
2022/07/31 04:36:43;;;;;;;4.75;3.90;;;;;;;16.65;79.62;96520.69;5025306;28;20042;-82
2022/07/31 04:39:09;;;;;;;4.28;3.50;;;;;;;16.66;79.02;96521.47;5024790;28;20062;-82
2022/07/31 04:41:36;;;;;;;4.57;3.83;;;;;;;16.66;79.28;96524.22;5024286;28;20042;-82
2022/07/31 04:44:02;;;;;;;5.32;4.18;;;;;;;16.75;80.09;96533.13;5024927;28;20046;-82
2022/07/31 04:46:29;;;;;;;6.30;3.78;;;;;;;16.73;80.05;96538.19;5024782;28;20053;-82
2022/07/31 04:48:56;;;;;;;6.00;4.35;;;;;;;16.70;80.45;96539.66;5024127;28;20053;-82
2022/07/31 04:51:24;;;;;;;4.57;4.10;;;;;;;16.73;81.27;96538.19;5024143;28;20045;-82
2022/07/31 04:53:51;;;;;;;6.20;3.90;;;;;;;16.79;81.37;96536.75;5024517;28;20057;-82
2022/07/31 04:56:34;;;;;;;4.82;4.10;;;;;;;16.84;80.96;96539.25;5024450;28;20046;-80
2022/07/31 04:59:03;;;;;;;5.30;4.20;;;;;;;16.88;80.51;96545.66;5025333;28;20420;-82
2022/07/31 05:01:30;;;;;;;4.80;3.90;;;;;;;16.87;80.36;96544.06;5024999;28;20057;-82
2022/07/31 05:03:57;;;;;;;4.95;3.70;;;;;;;16.92;80.32;96546.53;5023481;28;20046;-81
2022/07/31 05:06:32;;;;;;;4.72;3.95;;;;;;;16.97;80.63;96547.44;5023383;28;20046;-82
2022/07/31 05:09:01;;;;;;;5.45;4.28;;;;;;;17.05;80.80;96538.19;5024071;28;20050;-81
2022/07/31 05:11:27;;;;;;;5.82;4.88;;;;;;;17.06;80.84;96539.78;5024675;28;20053;-81
2022/07/31 05:13:56;;;;;;;7.97;4.50;;;;;;;17.03;80.55;96530.31;5023784;28;20045;-82
2022/07/31 05:16:24;;;;;;;6.15;4.75;;;;;;;17.03;80.10;96535.00;5023887;28;20049;-82
2022/07/31 05:18:51;;;;;;;5.15;4.65;;;;;;;17.02;80.31;96530.63;5019111;28;20045;-82
2022/07/31 05:21:18;;;;;;;6.78;4.90;;;;;;;17.02;79.67;96527.88;5018922;28;20626;-81
2022/07/31 05:23:46;;;;;;;5.63;4.55;;;;;;;17.07;79.71;96524.88;5017846;28;20053;-81
2022/07/31 05:26:15;;;;;;;5.20;4.45;;;;;;;17.19;79.90;96527.53;5019807;28;20061;-81
2022/07/31 05:28:41;;;;;;;5.40;4.30;;;;;;;17.22;79.42;96524.06;5023034;28;20052;-83
2022/07/31 05:31:09;;;;;;;6.57;4.15;;;;;;;17.33;79.70;96522.38;5019633;28;20046;-80
2022/07/31 05:33:36;;;;;;;4.63;4.15;;;;;;;17.45;80.19;96525.03;5021173;28;20041;-81
2022/07/31 05:36:04;;;;;;;7.60;4.55;;;;;;;17.44;79.28;96523.44;5024401;28;20054;-81
2022/07/31 05:38:31;;;;;;;9.65;4.25;;;;;;;17.56;79.17;96522.50;5026873;28;20052;-83
2022/07/31 05:40:58;;;;;;;6.80;4.45;;;;;;;17.58;78.48;96530.41;5022570;28;20058;-82
2022/07/31 05:43:26;;;;;;;6.43;4.10;;;;;;;17.65;77.79;96531.38;5031993;28;20050;-84
2022/07/31 05:45:53;;;;;;;4.90;4.38;;;;;;;17.74;77.92;96542.19;5028426;28;20077;-82
2022/07/31 05:48:19;;;;;;;8.30;4.22;;;;;;;17.77;77.85;96538.75;5025910;28;20050;-83
2022/07/31 05:50:48;;;;;;;5.30;4.55;;;;;;;17.57;79.08;96537.88;5024266;28;20057;-82
2022/07/31 05:53:15;;;;;;;7.15;4.45;;;;;;;17.76;79.16;96544.63;5028067;28;20053;-83
2022/07/31 05:55:42;;;;;;;5.97;4.55;;;;;;;17.76;79.77;96539.09;5023173;28;20050;-83
2022/07/31 05:58:09;;;;;;;6.55;4.10;;;;;;;17.77;79.86;96541.50;5029295;28;20045;-82
2022/07/31 06:00:37;;;;;;;7.63;4.57;;;;;;;17.77;79.22;96541.50;5026097;28;20050;-81
2022/07/31 06:03:04;;;;;;;7.10;4.97;;;;;;;17.87;79.68;96540.13;5014178;28;20046;-79
2022/07/31 06:05:31;;;;;;;5.47;4.35;;;;;;;18.02;79.56;96541.25;5014401;28;20050;-79
2022/07/31 06:07:58;;;;;;;5.90;4.38;;;;;;;18.05;79.07;96546.00;5014478;28;20089;-79
2022/07/31 06:10:25;;;;;;;6.05;3.60;;;;;;;18.20;78.45;96548.69;5013081;28;20051;-80
2022/07/31 06:12:52;;;;;;;4.43;3.50;;;;;;;18.39;78.39;96556.19;5034502;28;20041;-87
2022/07/31 06:15:19;;;;;;;4.82;4.25;;;;;;;18.37;77.28;96561.25;5032039;28;20050;-85
2022/07/31 06:17:47;;;;;;;4.65;3.85;;;;;;;18.47;77.80;96552.38;5029600;28;20058;-83
2022/07/31 06:20:14;;;;;;;4.95;3.90;;;;;;;18.52;76.06;96559.56;5026065;28;20050;-83
2022/07/31 06:22:42;;;;;;;7.35;4.00;;;;;;;18.55;75.97;96552.53;5014038;28;20759;-80
2022/07/31 06:25:10;;;;;;;6.25;4.35;;;;;;;18.57;76.23;96553.75;5023513;28;20045;-83
2022/07/31 06:27:37;;;;;;;3.83;3.40;;;;;;;18.74;74.94;96560.81;5025213;28;20049;-81
2022/07/31 06:30:04;;;;;;;4.20;3.78;;;;;;;18.78;73.45;96556.94;5025200;28;20064;-81
2022/07/31 06:32:31;;;;;;;4.57;3.40;;;;;;;18.72;73.04;96554.88;5023159;28;20044;-81
2022/07/31 06:34:59;;;;;;;4.82;3.70;;;;;;;18.80;72.18;96553.84;5022858;28;20053;-82
2022/07/31 06:37:31;;;;;;;3.97;3.40;;;;;;;18.64;72.68;96558.63;5020913;28;20042;-85
2022/07/31 06:39:58;;;;;;;3.97;3.53;;;;;;;18.73;72.97;96556.44;5033871;28;20050;-85
2022/07/31 06:42:25;;;;;;;6.00;3.80;;;;;;;18.83;73.02;96553.09;5028875;28;20049;-78
2022/07/31 06:44:55;;;;;;;6.53;3.75;;;;;;;18.69;72.12;96552.84;5014291;28;20046;-83
2022/07/31 06:47:24;;;;;;;7.47;4.00;;;;;;;18.85;72.02;96555.50;5032637;28;20049;-85
2022/07/31 06:49:50;;;;;;;5.22;4.05;;;;;;;18.76;71.45;96553.78;5025841;28;20050;-78
2022/07/31 06:52:18;;;;;;;6.85;3.88;;;;;;;18.87;71.96;96561.44;5024546;28;20042;-81
2022/07/31 06:54:45;;;;;;;4.70;3.40;;;;;;;18.76;73.62;96550.22;5021924;28;20061;-79
2022/07/31 06:57:12;;;;;;;6.82;3.75;;;;;;;18.81;74.43;96554.63;5015008;28;20061;-81
2022/07/31 06:59:39;;;;;;;6.10;4.35;;;;;;;18.81;74.49;96558.19;5026348;28;20049;-89
2022/07/31 07:02:06;;;;;;;8.07;3.75;;;;;;;18.96;73.37;96557.28;5029193;28;20038;-83
2022/07/31 07:04:32;;;;;;;6.65;3.83;;;;;;;19.12;73.05;96553.59;5032578;28;20069;-79
2022/07/31 07:06:59;;;;;;;4.47;3.38;;;;;;;19.04;73.38;96553.47;5022883;28;20105;-87
2022/07/31 07:09:27;;;;;;;3.80;3.40;;;;;;;19.09;73.85;96559.84;5026052;28;20053;-81
2022/07/31 07:11:53;;;;;;;5.90;4.38;;;;;;;19.14;72.93;96567.81;5032037;28;20056;-85
2022/07/31 07:14:20;;;;;;;5.75;3.53;;;;;;;19.21;72.93;96562.41;5032497;28;20032;-81
2022/07/31 07:16:46;;;;;;;5.13;3.83;;;;;;;19.17;72.48;96569.88;5031020;28;20041;-84
2022/07/31 07:19:13;;;;;;;4.80;4.13;;;;;;;19.01;73.95;96568.03;5032081;28;20058;-82
2022/07/31 07:21:39;;;;;;;5.95;4.47;;;;;;;19.02;74.57;96569.59;5023826;28;20054;-78
2022/07/31 07:24:07;;;;;;;5.57;4.25;;;;;;;18.99;75.64;96567.56;5030581;28;20060;-83
2022/07/31 07:26:34;;;;;;;5.95;4.43;;;;;;;18.90;75.79;96563.47;5029101;28;20046;-79
2022/07/31 07:29:01;;;;;;;6.45;4.20;;;;;;;18.90;75.49;96563.47;5024808;28;20081;-83
2022/07/31 07:31:28;;;;;;;5.85;4.28;;;;;;;18.85;75.88;96564.56;5031210;28;20045;-84
2022/07/31 07:33:55;;;;;;;5.78;4.47;;;;;;;19.04;74.93;96567.25;5022817;28;20049;-80
2022/07/31 07:36:21;;;;;;;4.50;4.10;;;;;;;19.04;74.43;96558.97;5014217;28;20076;-83
2022/07/31 07:38:48;;;;;;;8.90;4.18;;;;;;;19.08;75.12;96566.53;5016243;28;20053;-80
2022/07/31 07:41:14;;;;;;;4.45;3.90;;;;;;;19.15;74.51;96559.16;5015810;28;20057;-80
2022/07/31 07:43:42;;;;;;;5.78;4.40;;;;;;;19.24;74.35;96561.69;5016121;28;20062;-79
2022/07/31 07:46:09;;;;;;;5.68;4.18;;;;;;;19.23;72.94;96557.34;5013336;28;20049;-79
2022/07/31 07:48:35;;;;;;;4.85;4.13;;;;;;;19.36;74.26;96561.47;5015778;28;20046;-78
2022/07/31 07:51:02;;;;;;;5.07;4.40;;;;;;;19.37;74.10;96557.56;5017395;28;20062;-76
2022/07/31 07:53:28;;;;;;;7.70;3.83;;;;;;;19.36;73.78;96547.69;5015163;28;20046;-81
2022/07/31 07:55:55;;;;;;;5.43;4.10;;;;;;;19.43;73.75;96547.81;5027729;28;20088;-81
2022/07/31 07:58:21;;;;;;;6.97;4.03;;;;;;;19.55;73.86;96544.84;5028212;28;20050;-84
2022/07/31 08:00:49;;;;;;;6.28;4.05;;;;;;;19.61;72.46;96542.56;5015665;28;20104;-80
2022/07/31 08:03:16;;;;;;;5.07;4.30;;;;;;;19.60;73.06;96541.00;5016536;28;20058;-78
2022/07/31 08:05:42;;;;;;;4.45;3.50;;;;;;;19.70;72.58;96540.34;5021199;28;20042;-86
2022/07/31 08:08:09;;;;;;;5.07;3.67;;;;;;;19.88;71.82;96543.34;5026482;28;20054;-85
2022/07/31 08:10:38;;;;;;;5.18;3.97;;;;;;;20.35;72.76;96536.44;5030590;28;20042;-85
2022/07/31 08:13:04;;;;;;;5.03;3.88;;;;;;;20.66;68.73;96537.22;5021430;28;20394;-82
2022/07/31 08:15:31;;;;;;;4.97;3.97;;;;;;;20.98;68.37;96541.09;5023371;28;20393;-82
2022/07/31 08:17:59;;;;;;;5.18;4.07;;;;;;;21.16;67.30;96535.75;5050810;28;20042;-82
2022/07/31 08:20:25;;;;;;;4.65;3.90;;;;;;;21.38;65.46;96539.50;5020572;28;20052;-87
2022/07/31 08:22:52;;;;;;;6.68;3.72;;;;;;;21.53;65.39;96537.66;5026214;28;20077;-84
2022/07/31 08:25:19;;;;;;;4.85;3.50;;;;;;;21.79;64.62;96528.31;5020714;28;20052;-83
2022/07/31 08:27:45;;;;;;;6.13;3.80;;;;;;;21.80;63.61;96541.00;5026429;28;20054;-85
2022/07/31 08:32:47;;;;;;;6.53;4.03;;;;;;;21.64;63.01;96532.97;5197610;22;20049;-88
2022/07/31 08:35:15;;;;;;;6.07;3.85;;;;;;;21.65;57.94;96531.00;5049923;28;20126;-84
2022/07/31 08:37:42;;;;;;;4.68;3.50;;;;;;;21.71;58.68;96532.22;5070407;28;20064;-86
2022/07/31 08:40:10;;;;;;;6.35;3.33;;;;;;;21.81;58.71;96525.94;5050284;28;20045;-89
2022/07/31 08:42:37;;;;;;;3.83;2.80;;;;;;;21.83;59.76;96527.16;5053679;28;20145;-83
2022/07/31 08:45:07;;;;;;;4.35;2.92;;;;;;;21.81;62.16;96537.03;5045686;28;20073;-83
2022/07/31 08:47:36;;;;;;;5.13;3.47;;;;;;;21.82;61.73;96533.88;5045259;28;20038;-87
2022/07/31 08:50:04;;;;;;;6.20;3.85;;;;;;;21.69;63.60;96527.06;5048858;28;20042;-78
2022/07/31 08:52:34;;;;;;;4.50;3.20;;;;;;;21.83;63.23;96529.13;5046595;28;20053;-86
2022/07/31 08:55:07;;;;;;;5.70;4.07;;;;;;;21.81;59.49;96525.94;5044902;28;20051;-79
2022/07/31 08:57:33;;;;;;;4.93;3.70;;;;;;;21.90;56.05;96523.63;5031756;28;20124;-82
2022/07/31 09:00:00;;;;;;;5.10;3.35;;;;;;;22.28;56.68;96519.47;5031099;28;20038;-77
2022/07/31 09:02:26;;;;;;;4.53;3.42;;;;;;;22.66;58.15;96529.13;5037123;28;20049;-79
2022/07/31 09:04:53;;;;;;;3.78;3.25;;;;;;;22.75;57.24;96527.94;5048411;28;20053;-91
2022/07/31 09:07:20;;;;;;;6.00;4.00;;;;;;;22.86;58.69;96534.31;5045903;28;20109;-80
2022/07/31 09:09:47;;;;;;;4.47;3.08;;;;;;;23.15;58.69;96530.41;5040547;28;20128;-82
2022/07/31 09:12:14;;;;;;;5.20;3.10;;;;;;;23.50;54.99;96526.06;5043108;28;20060;-87
2022/07/31 09:14:48;;;;;;;4.13;3.50;;;;;;;23.75;55.97;96523.25;5046415;28;20057;-86
2022/07/31 09:17:15;;;;;;;5.70;3.70;;;;;;;23.80;54.00;96513.72;5052266;28;20508;-88
2022/07/31 09:19:46;;;;;;;7.15;3.60;;;;;;;23.83;54.82;96512.94;5051494;28;20041;-90
2022/07/31 09:22:21;;;;;;;4.28;3.28;;;;;;;23.97;55.00;96510.13;5052549;28;20072;-82
2022/07/31 09:24:49;;;;;;;4.90;2.90;;;;;;;23.82;50.38;96511.34;5020270;28;20045;-81
2022/07/31 09:27:16;;;;;;;4.72;3.55;;;;;;;23.73;51.07;96508.19;5031864;28;20045;-79
2022/07/31 09:29:45;;;;;;;5.20;3.33;;;;;;;23.79;55.10;96507.38;5031137;28;20048;-82
2022/07/31 09:32:13;;;;;;;4.22;3.22;;;;;;;23.88;53.48;96504.19;5040648;28;20072;-88
2022/07/31 09:35:07;;;;;;;4.55;2.80;;;;;;;23.86;53.00;96501.00;5043683;28;20060;-89
2022/07/31 09:37:34;;;;;;;4.15;2.90;;;;;;;23.81;52.09;96501.41;5047212;28;20049;-85
2022/07/31 09:40:03;;;;;;;58.08;52.95;;;;;;;24.03;51.93;96499.38;5042516;28;20053;-79
2022/07/31 09:42:37;;;;;;;7.50;5.80;;;;;;;24.10;50.52;96505.69;5038375;28;20048;-84
2022/07/31 09:45:03;;;;;;;5.60;3.05;;;;;;;23.99;48.08;96499.38;5037902;28;20048;-80
2022/07/31 09:47:31;;;;;;;6.78;2.97;;;;;;;23.92;50.97;96497.41;5031063;28;20057;-84
2022/07/31 09:50:00;;;;;;;4.72;3.60;;;;;;;24.15;53.84;96496.94;5047841;28;20063;-83
2022/07/31 09:52:29;;;;;;;4.10;2.92;;;;;;;24.29;50.29;96495.28;5058168;28;20049;-87
2022/07/31 09:55:04;;;;;;;5.05;3.22;;;;;;;24.53;47.78;96493.59;5061201;28;20060;-86
2022/07/31 09:57:31;;;;;;;4.15;2.75;;;;;;;24.75;50.35;96488.72;5061554;28;20057;-89
2022/07/31 09:59:58;;;;;;;3.53;2.70;;;;;;;24.99;48.95;96487.75;5062561;28;20106;-83
2022/07/31 10:02:26;;;;;;;3.65;2.70;;;;;;;25.26;46.71;96485.16;5070944;28;20045;-89
2022/07/31 10:04:54;;;;;;;4.22;2.78;;;;;;;24.95;45.81;96481.41;5074508;28;20033;-91
2022/07/31 10:07:25;;;;;;;386.38;225.98;;;;;;;24.89;44.64;96483.81;5057645;28;20037;-82
2022/07/31 10:09:55;;;;;;;7.72;6.93;;;;;;;25.28;45.03;96484.78;5042656;28;20493;-79
2022/07/31 10:12:28;;;;;;;4.53;2.90;;;;;;;25.20;43.95;96482.03;5049914;28;20053;-83
2022/07/31 10:14:55;;;;;;;;;;;;;;;25.24;44.64;96477.22;5034605;28;20045;-79
2022/07/31 10:17:27;;;;;;;4.75;2.70;;;;;;;25.45;48.84;96476.25;5057565;28;19920;-83
2022/07/31 10:19:57;;;;;;;39.10;32.85;;;;;;;25.54;46.66;96478.56;5056365;28;20048;-79
2022/07/31 10:22:27;;;;;;;48.80;29.15;;;;;;;25.71;44.25;96469.22;5046852;28;20665;-78
2022/07/31 10:24:55;;;;;;;713.65;583.45;;;;;;;25.59;43.82;96475.31;5047141;28;20653;-78
2022/07/31 10:27:23;;;;;;;25.50;22.88;;;;;;;25.69;42.97;96468.84;5046708;28;20072;-78
2022/07/31 10:29:50;;;;;;;8.27;7.53;;;;;;;25.88;46.02;96469.47;5047551;28;20143;-77
2022/07/31 10:32:17;;;;;;;4.70;2.30;;;;;;;26.09;42.19;96463.63;5046592;28;20056;-79
2022/07/31 10:34:43;;;;;;;4.63;2.47;;;;;;;26.12;40.18;96460.03;5047527;28;20052;-78
2022/07/31 10:37:14;;;;;;;5.10;2.30;;;;;;;25.99;42.01;96467.34;5046404;28;20056;-77
2022/07/31 10:39:49;;;;;;;3.30;2.20;;;;;;;25.65;42.57;96456.16;5047082;28;20037;-77
2022/07/31 10:42:25;;;;;;;4.10;1.75;;;;;;;25.96;43.00;96454.25;5046857;28;20451;-77
2022/07/31 10:45:02;;;;;;;3.47;2.15;;;;;;;26.14;40.58;96456.81;5047210;28;20053;-77
2022/07/31 10:47:29;;;;;;;5.18;2.00;;;;;;;25.97;39.96;96455.81;5045931;28;20041;-77
2022/07/31 10:49:55;;;;;;;2.97;1.80;;;;;;;25.82;41.91;96459.97;5057296;28;20029;-83
2022/07/31 10:52:30;;;;;;;2.33;1.90;;;;;;;26.03;40.64;96465.31;5041948;28;20114;-83
2022/07/31 10:54:59;;;;;;;5.68;2.00;;;;;;;25.93;39.87;96452.28;5050706;28;20045;-84
2022/07/31 10:57:28;;;;;;;3.08;2.25;;;;;;;25.84;41.15;96450.00;5061729;28;20040;-86
2022/07/31 10:59:56;;;;;;;3.67;1.90;;;;;;;25.96;39.59;96448.66;5049807;28;20049;-81
2022/07/31 11:02:30;;;;;;;6.22;2.05;;;;;;;26.02;40.97;96453.34;5062519;28;20045;-84
2022/07/31 11:05:07;;;;;;;2.42;1.83;;;;;;;26.16;41.66;96449.59;5057754;28;20055;-78
2022/07/31 11:07:34;;;;;;;2.30;1.92;;;;;;;26.43;39.87;96449.69;5051872;28;20049;-79
2022/07/31 11:10:19;;;;;;;2.75;1.80;;;;;;;26.49;39.26;96441.63;5054201;28;20056;-80
2022/07/31 11:12:58;;;;;;;3.80;2.08;;;;;;;26.44;40.02;96434.50;5057234;28;20056;-78
2022/07/31 11:15:26;;;;;;;2.25;1.80;;;;;;;26.23;42.19;96435.56;5055962;28;20041;-77
2022/07/31 11:17:53;;;;;;;3.70;1.90;;;;;;;26.32;39.22;96431.47;5055406;28;20646;-88
2022/07/31 11:20:23;;;;;;;6.03;2.20;;;;;;;26.44;40.62;96433.72;5066785;28;20051;-88
2022/07/31 11:22:57;;;;;;;5.15;2.03;;;;;;;26.50;38.91;96423.66;5059208;28;20445;-85
2022/07/31 11:25:24;;;;;;;3.40;1.70;;;;;;;26.47;39.10;96421.72;5065900;28;20041;-84
2022/07/31 11:27:51;;;;;;;3.10;2.10;;;;;;;26.09;38.32;96427.34;5065979;28;20512;-81
2022/07/31 11:30:20;;;;;;;3.25;2.05;;;;;;;26.33;40.36;96427.47;5060785;28;20045;-88
2022/07/31 11:32:57;;;;;;;5.47;2.17;;;;;;;26.28;38.43;96421.13;5053711;28;20037;-86
2022/07/31 11:35:26;;;;;;;4.25;1.90;;;;;;;26.33;40.07;96421.88;5040333;28;20048;-79
2022/07/31 11:37:53;;;;;;;3.50;2.08;;;;;;;26.43;37.46;96418.19;5032674;28;20049;-79
2022/07/31 11:40:20;;;;;;;3.00;2.03;;;;;;;26.35;40.42;96420.22;5034198;28;20123;-77
2022/07/31 11:42:47;;;;;;;3.97;2.10;;;;;;;26.32;37.32;96423.09;5027368;28;20057;-80